Time;durP1;ratioP1;P1;durP2;ratioP2;P2;SDS_P1;SDS_P2;PMS_P1;PMS_P2;Temp;Humidity;BMP_temperature;BMP_pressure;BME280_temperature;BME280_humidity;BME280_pressure;Samples;Min_cycle;Max_cycle;Signal;HPM_P1;HPM_P2
2022/02/16 00:04:01;;;;;;;0.00;0.00;;;-0.40;99.90;;;;;;21075892;28;20032;-48
2022/02/16 00:14:03;;;;;;;0.00;0.00;;;-0.50;99.90;;;;;;21074950;28;20104;-49
2022/02/16 00:24:06;;;;;;;0.00;0.00;;;-0.80;99.90;;;;;;21073689;28;20044;-50
2022/02/16 00:34:09;;;;;;;0.00;0.00;;;-0.80;99.90;;;;;;21073071;28;20458;-48
2022/02/16 00:44:12;;;;;;;0.00;0.00;;;-0.80;99.90;;;;;;21072417;28;20032;-47
2022/02/16 00:54:15;;;;;;;0.00;0.00;;;-0.90;99.90;;;;;;21071282;28;20048;-50
2022/02/16 01:04:18;;;;;;;0.10;0.00;;;-0.90;99.90;;;;;;21054133;28;20475;-47
2022/02/16 01:14:23;;;;;;;0.80;0.00;;;-0.90;99.90;;;;;;21069564;28;20032;-47
2022/02/16 01:24:43;;;;;;;0.17;0.00;;;-1.10;99.90;;;;;;21069174;28;20081;-50
2022/02/16 01:34:48;;;;;;;0.10;0.00;;;-1.10;99.90;;;;;;21051960;28;20111;-46
2022/02/16 01:44:51;;;;;;;0.00;0.00;;;-1.00;99.90;;;;;;21068138;28;20458;-47
2022/02/16 01:54:54;;;;;;;0.03;0.00;;;-0.90;99.90;;;;;;21050365;28;20109;-46
2022/02/16 02:04:57;;;;;;;0.00;0.00;;;-0.90;99.90;;;;;;21067876;28;20066;-47
2022/02/16 02:15:00;;;;;;;0.08;0.00;;;-1.10;99.90;;;;;;21050733;28;20089;-46
2022/02/16 02:25:48;;;;;;;0.03;0.00;;;-1.10;99.90;;;;;;21048698;28;20044;-46
2022/02/16 02:35:52;;;;;;;0.08;0.00;;;-1.00;99.90;;;;;;21076350;28;20096;-47
2022/02/16 02:46:01;;;;;;;0.03;0.00;;;-1.10;99.90;;;;;;21093270;28;20031;-48
2022/02/16 02:56:12;;;;;;;0.20;0.00;;;-1.30;99.90;;;;;;21077118;28;20517;-47
2022/02/16 03:06:17;;;;;;;0.00;0.00;;;-1.40;99.90;;;;;;21083007;28;20044;-46
2022/02/16 03:16:20;;;;;;;0.03;0.00;;;-1.50;99.90;;;;;;21082983;28;20070;-49
2022/02/16 03:26:23;;;;;;;0.28;0.00;;;-1.60;99.90;;;;;;21065336;28;20093;-47
2022/02/16 03:36:27;;;;;;;0.10;0.00;;;-1.50;99.90;;;;;;21083602;28;20101;-46
2022/02/16 03:46:30;;;;;;;0.20;0.00;;;-1.40;99.90;;;;;;21076580;28;20376;-49
2022/02/16 03:56:34;;;;;;;0.20;0.00;;;-1.50;99.90;;;;;;21076317;28;20101;-46
2022/02/16 04:06:37;;;;;;;0.00;0.00;;;-1.50;99.90;;;;;;21058636;28;20563;-47
2022/02/16 04:16:40;;;;;;;0.20;0.10;;;-1.60;99.90;;;;;;21074299;28;20085;-47
2022/02/16 04:26:43;;;;;;;0.20;0.00;;;-1.70;99.90;;;;;;21057077;28;20044;-50
2022/02/16 04:36:45;;;;;;;0.00;0.00;;;-1.50;99.90;;;;;;21055943;28;20087;-46
2022/02/16 04:46:50;;;;;;;0.00;0.00;;;-1.60;99.90;;;;;;21055019;28;20495;-48
2022/02/16 04:56:55;;;;;;;0.00;0.00;;;-1.50;99.90;;;;;;21054392;28;20039;-46
2022/02/16 05:07:01;;;;;;;0.00;0.00;;;-1.90;99.90;;;;;;21053613;28;20028;-45
2022/02/16 05:17:03;;;;;;;0.00;0.00;;;-2.00;99.90;;;;;;21069565;28;20056;-47
2022/02/16 05:27:07;;;;;;;0.00;0.00;;;-2.20;99.90;;;;;;21069371;28;20479;-47
2022/02/16 05:37:10;;;;;;;0.00;0.00;;;-2.60;99.90;;;;;;21067813;28;20090;-47
2022/02/16 05:47:13;;;;;;;0.00;0.00;;;-3.10;99.90;;;;;;21067192;28;20419;-46
2022/02/16 05:57:16;;;;;;;0.05;0.00;;;-3.40;99.90;;;;;;21067382;28;20048;-48
2022/02/16 06:07:20;;;;;;;0.00;0.00;;;-3.70;99.90;;;;;;21065938;28;20503;-47
2022/02/16 06:17:22;;;;;;;0.00;0.00;;;-3.70;99.90;;;;;;21043649;28;20040;-46
2022/02/16 06:27:27;;;;;;;0.20;0.00;;;-3.80;99.90;;;;;;21049548;28;20479;-47
2022/02/16 06:37:30;;;;;;;0.03;0.00;;;-3.50;99.90;;;;;;21047824;28;20039;-46
2022/02/16 06:47:35;;;;;;;0.20;0.00;;;-2.90;99.90;;;;;;21064270;28;20052;-47
2022/02/16 06:57:39;;;;;;;0.00;0.00;;;-2.50;99.90;;;;;;21047695;28;20040;-48
2022/02/16 07:07:44;;;;;;;0.80;0.00;;;-2.40;99.90;;;;;;21063698;28;20035;-46
2022/02/16 07:17:47;;;;;;;0.00;0.00;;;-2.30;99.90;;;;;;21071436;28;20054;-48
2022/02/16 07:27:51;;;;;;;0.20;0.03;;;-2.10;99.90;;;;;;21062027;28;20042;-47
2022/02/16 07:37:57;;;;;;;0.00;0.00;;;-1.90;99.90;;;;;;21060636;28;20349;-45
2022/02/16 07:48:01;;;;;;;0.00;0.00;;;-1.50;99.90;;;;;;21076907;28;20048;-46
2022/02/16 07:58:08;;;;;;;0.00;0.00;;;-1.00;99.90;;;;;;21059553;28;20052;-46
2022/02/16 08:08:11;;;;;;;0.00;0.00;;;-0.10;99.90;;;;;;21058678;28;20044;-45
2022/02/16 08:18:14;;;;;;;0.20;0.00;;;0.40;99.90;;;;;;21074297;28;20061;-46
2022/02/16 08:28:17;;;;;;;0.00;0.00;;;1.30;99.90;;;;;;21057008;28;20116;-46
2022/02/16 08:38:20;;;;;;;0.00;0.00;;;2.20;99.90;;;;;;21056029;28;20066;-47
2022/02/16 08:48:23;;;;;;;0.20;0.00;;;3.40;99.90;;;;;;21071651;28;20048;-50
2022/02/16 08:58:27;;;;;;;0.00;0.00;;;3.80;99.90;;;;;;21070636;28;20540;-48
2022/02/16 09:08:30;;;;;;;0.10;0.00;;;4.30;99.90;;;;;;21070401;28;20395;-48
2022/02/16 09:18:33;;;;;;;0.47;0.10;;;4.30;99.90;;;;;;21070741;28;20039;-49
2022/02/16 09:28:42;;;;;;;0.03;0.00;;;4.90;99.90;;;;;;21070863;28;20039;-50
2022/02/16 09:38:45;;;;;;;1.55;0.10;;;5.00;99.90;;;;;;21069207;28;20564;-47
2022/02/16 09:48:49;;;;;;;0.03;0.00;;;5.80;99.90;;;;;;21068756;28;20536;-48
2022/02/16 09:58:51;;;;;;;0.30;0.10;;;6.80;99.90;;;;;;21068997;28;20495;-50
2022/02/16 10:08:54;;;;;;;0.63;0.30;;;8.10;99.90;;;;;;21051443;28;20488;-51
2022/02/16 10:19:02;;;;;;;0.85;0.52;;;9.20;99.20;;;;;;21067583;28;20040;-52
2022/02/16 10:29:20;;;;;;;0.93;0.60;;;9.90;98.10;;;;;;21050901;28;20040;-50
2022/02/16 10:39:26;;;;;;;1.27;0.68;;;10.30;95.40;;;;;;21065766;28;20475;-50
2022/02/16 10:49:30;;;;;;;0.98;0.57;;;10.20;94.90;;;;;;21069378;28;20487;-52
2022/02/16 10:59:34;;;;;;;1.10;0.60;;;9.70;94.70;;;;;;21080507;28;20402;-53
2022/02/16 11:09:42;;;;;;;0.93;0.75;;;9.70;94.90;;;;;;21079769;28;20082;-51
2022/02/16 11:19:46;;;;;;;1.40;0.77;;;10.20;94.50;;;;;;21078885;28;20090;-49
2022/02/16 11:29:49;;;;;;;1.63;0.85;;;9.90;95.50;;;;;;21061749;28;20081;-50
2022/02/16 11:39:52;;;;;;;1.35;1.00;;;10.50;93.90;;;;;;21077367;28;20032;-50
2022/02/16 11:49:55;;;;;;;1.67;1.13;;;9.60;95.00;;;;;;21077222;28;20048;-52
2022/02/16 12:00:23;;;;;;;3.22;1.70;;;8.70;96.80;;;;;;21075912;28;20044;-55
2022/02/16 12:10:42;;;;;;;3.08;1.67;;;8.70;97.10;;;;;;21065055;28;20096;-52
2022/02/16 12:20:49;;;;;;;1.85;1.45;;;8.30;98.30;;;;;;21073987;28;20036;-55
2022/02/16 12:30:51;;;;;;;1.83;1.30;;;8.10;99.10;;;;;;21073655;28;20044;-50
2022/02/16 12:40:54;;;;;;;2.30;1.67;;;8.00;99.10;;;;;;21057419;28;20101;-50
2022/02/16 12:51:04;;;;;;;2.72;1.88;;;8.10;98.70;;;;;;21072417;28;20048;-51
2022/02/16 13:01:07;;;;;;;3.37;2.50;;;7.60;99.60;;;;;;21072282;28;20040;-52
2022/02/16 13:11:11;;;;;;;3.28;2.40;;;7.40;99.90;;;;;;21070231;28;20032;-51
2022/02/16 13:21:23;;;;;;;3.13;2.20;;;7.60;99.90;;;;;;21069586;28;20463;-53
2022/02/16 13:31:28;;;;;;;4.47;2.97;;;8.00;99.90;;;;;;21069185;28;20065;-51
2022/02/16 13:41:31;;;;;;;4.38;2.22;;;8.20;99.90;;;;;;21050998;28;20096;-51
2022/02/16 13:51:34;;;;;;;3.60;2.35;;;8.40;98.80;;;;;;21067084;28;20136;-49
2022/02/16 14:01:36;;;;;;;2.42;1.70;;;8.50;99.90;;;;;;21066091;28;20035;-51
2022/02/16 14:11:46;;;;;;;2.30;1.35;;;8.20;97.70;;;;;;21066126;28;20036;-49
2022/02/16 14:21:49;;;;;;;2.60;1.90;;;7.30;99.90;;;;;;21065071;28;20035;-53
2022/02/16 14:31:52;;;;;;;2.80;2.00;;;6.80;99.90;;;;;;21065016;28;20391;-48
2022/02/16 14:41:55;;;;;;;3.97;2.40;;;6.20;99.90;;;;;;21048337;28;20168;-49
2022/02/16 14:51:58;;;;;;;3.70;2.28;;;5.80;99.90;;;;;;21064416;28;20056;-54
2022/02/16 15:02:02;;;;;;;4.32;2.90;;;5.50;99.90;;;;;;21047054;28;20077;-52
2022/02/16 15:12:07;;;;;;;4.50;2.67;;;4.90;99.90;;;;;;21046605;28;20040;-50
2022/02/16 15:22:10;;;;;;;4.10;2.30;;;4.20;99.90;;;;;;21062799;28;20077;-55
2022/02/16 15:32:14;;;;;;;4.43;2.80;;;3.70;99.90;;;;;;21062475;28;20032;-51
2022/02/16 15:42:18;;;;;;;4.43;2.90;;;3.50;99.90;;;;;;21075289;28;20056;-50
2022/02/16 15:52:20;;;;;;;6.32;3.65;;;3.10;99.90;;;;;;21076209;28;20052;-50
2022/02/16 16:02:27;;;;;;;5.75;3.78;;;2.90;99.90;;;;;;21075486;28;20065;-50
2022/02/16 16:12:30;;;;;;;8.68;4.60;;;2.70;99.90;;;;;;21075198;28;20036;-50
2022/02/16 16:22:34;;;;;;;8.75;4.22;;;2.20;99.90;;;;;;21073804;28;20035;-50
2022/02/16 16:32:36;;;;;;;8.57;4.63;;;1.60;99.90;;;;;;21072887;28;20036;-52
2022/02/16 16:42:40;;;;;;;7.60;4.35;;;0.90;99.90;;;;;;21072599;28;20066;-51
2022/02/16 16:52:42;;;;;;;6.80;4.35;;;0.50;99.90;;;;;;21071494;28;20089;-52
2022/02/16 17:02:44;;;;;;;5.97;3.72;;;0.20;99.90;;;;;;21070559;28;20032;-54
2022/02/16 17:12:48;;;;;;;4.65;2.83;;;0.10;99.90;;;;;;21069823;28;20036;-51
2022/02/16 17:22:51;;;;;;;4.22;2.38;;;-0.10;99.90;;;;;;21069437;28;20086;-52
2022/02/16 17:32:58;;;;;;;3.67;2.30;;;-0.10;99.90;;;;;;21051958;28;20032;-52
2022/02/16 17:43:00;;;;;;;5.90;3.42;;;-0.10;99.90;;;;;;21067612;28;20387;-48
2022/02/16 17:53:04;;;;;;;4.88;2.70;;;-0.30;99.90;;;;;;21049907;28;20073;-48
2022/02/16 18:03:06;;;;;;;4.55;2.72;;;-0.50;99.90;;;;;;21065708;28;20028;-48
2022/02/16 18:13:10;;;;;;;6.03;2.40;;;-0.40;99.90;;;;;;21066031;28;20039;-47
2022/02/16 18:23:12;;;;;;;3.33;2.30;;;-0.20;99.90;;;;;;21066378;28;20515;-47
2022/02/16 18:33:18;;;;;;;4.20;2.17;;;-0.30;99.90;;;;;;21048349;28;20055;-47
2022/02/16 18:43:21;;;;;;;4.18;1.88;;;-0.40;99.90;;;;;;21064830;28;20085;-47
2022/02/16 18:53:25;;;;;;;2.10;1.48;;;-0.50;99.90;;;;;;21064131;28;20109;-46
2022/02/16 19:03:27;;;;;;;1.95;1.30;;;-0.50;99.90;;;;;;21063634;28;20036;-47
2022/02/16 19:13:30;;;;;;;2.78;1.27;;;-0.40;99.90;;;;;;21073169;28;20061;-46
2022/02/16 19:23:33;;;;;;;2.38;1.20;;;-0.40;99.90;;;;;;21081194;28;20536;-46
2022/02/16 19:33:36;;;;;;;2.67;1.27;;;-0.10;99.90;;;;;;21061403;28;20039;-47
2022/02/16 19:43:38;;;;;;;2.60;1.13;;;-0.30;99.90;;;;;;21077493;28;20093;-48
2022/02/16 19:53:41;;;;;;;3.30;1.50;;;-0.70;99.90;;;;;;21076791;28;20078;-47
2022/02/16 20:03:45;;;;;;;3.03;1.50;;;-0.80;99.90;;;;;;21075862;28;20032;-45
2022/02/16 20:13:48;;;;;;;2.00;0.75;;;-0.90;99.90;;;;;;21075446;28;20073;-46
2022/02/16 20:23:51;;;;;;;2.35;1.33;;;-1.10;99.90;;;;;;21073343;28;20040;-49
2022/02/16 20:33:55;;;;;;;1.80;1.13;;;-1.10;99.90;;;;;;21073640;28;20395;-46
2022/02/16 20:43:57;;;;;;;1.77;0.80;;;-1.20;99.90;;;;;;21072692;28;20544;-45
2022/02/16 20:54:00;;;;;;;1.48;0.70;;;-1.20;99.90;;;;;;21053493;28;20545;-47
2022/02/16 21:04:03;;;;;;;1.30;0.60;;;-1.20;99.90;;;;;;21070760;28;20040;-45
2022/02/16 21:14:06;;;;;;;1.65;0.75;;;-1.20;99.90;;;;;;21070320;28;20035;-47
2022/02/16 21:24:09;;;;;;;1.25;0.70;;;-1.20;99.90;;;;;;21065339;28;20044;-45
2022/02/16 21:34:12;;;;;;;1.98;1.00;;;-1.10;99.90;;;;;;21066512;28;20090;-51
2022/02/16 21:44:15;;;;;;;1.30;0.63;;;-1.20;99.90;;;;;;21067511;28;20031;-45
2022/02/16 21:54:17;;;;;;;4.25;0.40;;;-1.30;99.90;;;;;;21066831;28;20048;-45
2022/02/16 22:04:20;;;;;;;1.40;0.50;;;-1.10;99.90;;;;;;21065986;28;20040;-45
2022/02/16 22:14:22;;;;;;;1.00;0.50;;;-1.10;99.90;;;;;;21058136;28;20535;-45
2022/02/16 22:24:26;;;;;;;0.98;0.50;;;-1.30;99.90;;;;;;21060838;28;20040;-45
2022/02/16 22:34:28;;;;;;;1.30;0.40;;;-1.40;99.90;;;;;;21065905;28;20096;-45
2022/02/16 22:44:31;;;;;;;1.27;0.45;;;-1.20;99.90;;;;;;21068175;28;20036;-44
2022/02/16 22:54:34;;;;;;;0.60;0.30;;;-1.10;99.90;;;;;;21081989;28;20117;-45
2022/02/16 23:04:37;;;;;;;0.40;0.20;;;-1.10;99.90;;;;;;21081016;28;20098;-45
2022/02/16 23:14:39;;;;;;;2.30;0.25;;;-1.10;99.90;;;;;;21080406;28;20544;-46
2022/02/16 23:24:42;;;;;;;0.50;0.20;;;-1.00;99.90;;;;;;21079933;28;20085;-49
2022/02/16 23:34:45;;;;;;;0.98;0.30;;;-0.90;99.90;;;;;;21078902;28;20032;-45
2022/02/16 23:44:47;;;;;;;0.57;0.20;;;-0.50;99.90;;;;;;21077866;28;20032;-47
2022/02/16 23:54:50;;;;;;;0.50;0.20;;;-0.70;99.90;;;;;;21076208;28;20048;-45
